createdAt,value
2019-05-15T00:00:15.321Z,8.81
2019-05-15T00:01:15.298Z,8.78
2019-05-15T00:02:15.286Z,8.76
2019-05-15T00:03:15.284Z,8.71
2019-05-15T00:04:15.279Z,8.66
2019-05-15T00:05:15.256Z,8.71
2019-05-15T00:06:15.258Z,8.69
2019-05-15T00:07:15.232Z,8.69
2019-05-15T00:08:15.220Z,8.67
2019-05-15T00:09:15.209Z,8.64
2019-05-15T00:10:15.225Z,8.64
2019-05-15T00:11:15.190Z,8.60
2019-05-15T00:12:15.181Z,8.55
2019-05-15T00:13:15.184Z,8.58
2019-05-15T00:14:15.157Z,8.48
2019-05-15T00:15:15.142Z,8.48
2019-05-15T00:16:15.157Z,8.49
2019-05-15T00:17:15.124Z,8.52
2019-05-15T00:18:15.110Z,8.48
2019-05-15T00:19:15.110Z,8.45
2019-05-15T00:20:15.089Z,8.49
2019-05-15T00:21:15.077Z,8.48
2019-05-15T00:22:15.085Z,8.41
2019-05-15T00:23:15.053Z,8.36
2019-05-15T00:24:15.050Z,8.36
2019-05-15T00:25:15.046Z,8.36
2019-05-15T00:26:15.023Z,8.33
2019-05-15T00:27:15.013Z,8.33
2019-05-15T00:28:15.017Z,8.26
2019-05-15T00:29:16.265Z,8.33
2019-05-15T00:30:14.978Z,8.27
2019-05-15T00:31:14.977Z,8.33
2019-05-15T00:32:14.959Z,8.34
2019-05-15T00:33:14.970Z,8.36
2019-05-15T00:34:14.940Z,8.30
2019-05-15T00:35:14.925Z,8.26
2019-05-15T00:36:14.914Z,8.28
2019-05-15T00:37:14.889Z,8.28
2019-05-15T00:38:14.900Z,8.31
2019-05-15T00:39:14.886Z,8.34
2019-05-15T00:40:14.860Z,8.19
2019-05-15T00:41:14.848Z,8.19
2019-05-15T00:42:14.840Z,8.23
2019-05-15T00:43:14.826Z,8.20
2019-05-15T00:44:14.844Z,8.24
2019-05-15T00:45:14.816Z,8.23
2019-05-15T00:46:14.794Z,8.15
2019-05-15T00:47:14.776Z,8.09
2019-05-15T00:48:14.763Z,8.06
2019-05-15T00:49:14.766Z,8.08
2019-05-15T00:50:14.760Z,8.03
2019-05-15T00:51:14.906Z,8.00
2019-05-15T00:52:14.719Z,8.06
2019-05-15T00:53:14.713Z,8.03
2019-05-15T00:54:14.719Z,7.97
2019-05-15T00:55:14.687Z,7.95
2019-05-15T00:56:14.690Z,7.95
2019-05-15T00:57:14.668Z,7.91
2019-05-15T00:58:14.655Z,7.83
2019-05-15T00:59:24.086Z,7.77
2019-05-15T01:00:15.647Z,7.88
2019-05-15T01:01:14.636Z,7.80
2019-05-15T01:02:14.643Z,7.82
2019-05-15T01:03:14.601Z,7.75
2019-05-15T01:04:14.599Z,7.80
2019-05-15T01:05:14.595Z,7.76
2019-05-15T01:06:14.571Z,7.79
2019-05-15T01:07:14.559Z,7.76
2019-05-15T01:08:14.566Z,7.80
2019-05-15T01:09:14.537Z,7.79
2019-05-15T01:10:14.534Z,7.63
2019-05-15T01:11:14.532Z,7.72
2019-05-15T01:12:14.502Z,7.67
2019-05-15T01:13:14.502Z,7.69
2019-05-15T01:14:14.505Z,7.60
2019-05-15T01:15:14.468Z,7.57
2019-05-15T01:16:14.461Z,7.51
2019-05-15T01:17:14.469Z,7.54
2019-05-15T01:18:14.435Z,7.60
2019-05-15T01:19:15.080Z,7.57
2019-05-15T01:20:14.443Z,7.53
2019-05-15T01:21:14.404Z,7.60
2019-05-15T01:22:14.393Z,7.45
2019-05-15T01:23:14.399Z,7.45
2019-05-15T01:24:14.375Z,7.48
2019-05-15T01:25:14.360Z,7.51
2019-05-15T01:26:14.380Z,7.50
2019-05-15T01:27:14.338Z,7.48
2019-05-15T01:28:14.332Z,7.45
2019-05-15T01:29:14.332Z,7.43
2019-05-15T01:30:14.304Z,7.50
2019-05-15T01:31:14.294Z,7.39
2019-05-15T01:32:14.302Z,7.45
2019-05-15T01:33:14.286Z,7.38
2019-05-15T01:34:14.283Z,7.40
2019-05-15T01:35:14.248Z,7.32
2019-05-15T01:36:14.241Z,7.35
2019-05-15T01:37:14.227Z,7.35
2019-05-15T01:38:14.218Z,7.33
2019-05-15T01:39:14.214Z,7.28
2019-05-15T01:40:14.211Z,7.21
2019-05-15T01:41:14.185Z,7.18
2019-05-15T01:42:14.175Z,7.23
2019-05-15T01:43:14.160Z,7.21
2019-05-15T01:44:14.155Z,7.20
2019-05-15T01:45:14.167Z,7.21
2019-05-15T01:46:14.142Z,7.17
2019-05-15T01:47:14.121Z,7.23
2019-05-15T01:48:14.107Z,7.18
2019-05-15T01:49:14.106Z,7.23
2019-05-15T01:50:14.088Z,7.24
2019-05-15T01:51:14.109Z,7.18
2019-05-15T01:52:14.064Z,7.20
2019-05-15T01:53:14.052Z,7.20
2019-05-15T01:54:14.041Z,7.06
2019-05-15T01:55:14.028Z,7.07
2019-05-15T01:56:14.031Z,7.10
2019-05-15T01:57:14.038Z,7.06
2019-05-15T01:58:14.007Z,7.00
2019-05-15T01:59:13.997Z,6.96
2019-05-15T02:00:13.977Z,6.96
2019-05-15T02:01:13.963Z,7.05
2019-05-15T02:02:13.975Z,7.02
2019-05-15T02:03:13.958Z,6.89
2019-05-15T02:04:13.927Z,6.95
2019-05-15T02:05:13.929Z,6.93
2019-05-15T02:06:13.918Z,6.92
2019-05-15T02:07:13.899Z,6.89
2019-05-15T02:08:13.905Z,6.84
2019-05-15T02:09:13.872Z,6.85
2019-05-15T02:10:13.863Z,6.84
2019-05-15T02:11:13.869Z,6.74
2019-05-15T02:12:13.842Z,6.78
2019-05-15T02:13:13.832Z,6.82
2019-05-15T02:14:13.836Z,6.81
2019-05-15T02:15:13.805Z,6.79
2019-05-15T02:16:13.799Z,6.85
2019-05-15T02:17:13.805Z,6.84
2019-05-15T02:18:13.775Z,6.72
2019-05-15T02:19:13.762Z,6.67
2019-05-15T02:20:13.762Z,6.70
2019-05-15T02:21:13.741Z,6.67
2019-05-15T02:22:13.727Z,6.62
2019-05-15T02:23:13.734Z,6.64
2019-05-15T02:24:13.710Z,6.62
2019-05-15T02:25:13.697Z,6.62
2019-05-15T02:26:13.685Z,6.60
2019-05-15T02:27:13.691Z,6.62
2019-05-15T02:28:13.683Z,6.59
2019-05-15T02:29:16.598Z,6.51
2019-05-15T02:30:24.185Z,6.52
2019-05-15T02:31:14.648Z,6.57
2019-05-15T02:32:13.620Z,6.59
2019-05-15T02:33:13.629Z,6.56
2019-05-15T02:34:13.613Z,6.59
2019-05-15T02:35:13.597Z,6.51
2019-05-15T02:36:13.586Z,6.59
2019-05-15T02:37:13.567Z,6.56
2019-05-15T02:38:15.526Z,6.49
2019-05-15T02:39:13.566Z,6.44
2019-05-15T02:40:13.534Z,6.42
2019-05-15T02:41:13.537Z,6.42
2019-05-15T02:42:13.508Z,6.42
2019-05-15T02:43:13.502Z,6.41
2019-05-15T02:44:13.488Z,6.44
2019-05-15T02:45:13.502Z,6.39
2019-05-15T02:46:13.462Z,6.46
2019-05-15T02:47:13.463Z,6.35
2019-05-15T02:48:13.445Z,6.33
2019-05-15T02:49:13.483Z,6.33
2019-05-15T02:50:13.419Z,6.28
2019-05-15T02:51:13.409Z,6.31
2019-05-15T02:52:13.457Z,6.26
2019-05-15T02:53:13.388Z,6.33
2019-05-15T02:54:13.374Z,6.28
2019-05-15T02:55:13.364Z,6.27
2019-05-15T02:56:13.382Z,6.30
2019-05-15T02:57:13.343Z,6.27
2019-05-15T02:58:13.341Z,6.30
2019-05-15T02:59:13.345Z,6.20
2019-05-15T03:00:32.653Z,6.27
2019-05-15T03:01:14.307Z,6.17
2019-05-15T03:02:13.289Z,6.22
2019-05-15T03:03:13.289Z,6.17
2019-05-15T03:04:13.276Z,6.19
2019-05-15T03:05:13.272Z,6.20
2019-05-15T03:06:13.260Z,6.12
2019-05-15T03:07:13.230Z,6.08
2019-05-15T03:08:13.220Z,6.12
2019-05-15T03:09:13.225Z,6.19
2019-05-15T03:10:13.213Z,6.12
2019-05-15T03:11:13.212Z,6.14
2019-05-15T03:12:13.181Z,6.05
2019-05-15T03:13:13.178Z,6.12
2019-05-15T03:14:13.160Z,5.98
2019-05-15T03:15:13.148Z,6.12
2019-05-15T03:16:13.145Z,5.99
2019-05-15T03:17:13.138Z,5.99
2019-05-15T03:18:13.110Z,6.02
2019-05-15T03:19:13.101Z,5.98
2019-05-15T03:20:13.092Z,5.94
2019-05-15T03:21:13.095Z,5.93
2019-05-15T03:22:13.065Z,5.93
2019-05-15T03:23:13.095Z,5.83
2019-05-15T03:24:13.044Z,5.83
2019-05-15T03:25:13.030Z,5.83
2019-05-15T03:26:13.020Z,5.89
2019-05-15T03:27:13.023Z,5.89
2019-05-15T03:28:13.000Z,5.89
2019-05-15T03:29:13.005Z,5.87
2019-05-15T03:30:14.728Z,5.90
2019-05-15T03:31:32.274Z,5.86
2019-05-15T03:32:24.816Z,5.86
2019-05-15T03:33:24.971Z,5.82
2019-05-15T03:34:21.448Z,5.89
2019-05-15T03:35:15.641Z,5.86
2019-05-15T03:36:14.055Z,5.84
2019-05-15T03:37:13.187Z,5.84
2019-05-15T03:38:12.914Z,5.82
2019-05-15T03:39:12.893Z,5.80
2019-05-15T03:40:12.866Z,5.75
2019-05-15T03:41:12.879Z,5.73
2019-05-15T03:42:12.844Z,5.71
2019-05-15T03:43:12.831Z,5.71
2019-05-15T03:44:12.845Z,5.71
2019-05-15T03:45:12.816Z,5.62
2019-05-15T03:46:12.805Z,5.72
2019-05-15T03:47:12.789Z,5.75
2019-05-15T03:48:12.815Z,5.64
2019-05-15T03:49:12.799Z,5.65
2019-05-15T03:50:12.772Z,5.61
2019-05-15T03:51:12.747Z,5.64
2019-05-15T03:52:12.737Z,5.65
2019-05-15T03:53:12.728Z,5.76
2019-05-15T03:54:12.743Z,5.62
2019-05-15T03:55:12.709Z,5.69
2019-05-15T03:56:12.689Z,5.64
2019-05-15T03:57:12.686Z,5.66
2019-05-15T03:58:12.679Z,5.72
2019-05-15T03:59:12.658Z,5.71
2019-05-15T04:00:12.656Z,5.66
2019-05-15T04:01:28.481Z,5.68
2019-05-15T04:02:13.623Z,5.76
2019-05-15T04:03:12.616Z,5.71
2019-05-15T04:04:12.615Z,5.66
2019-05-15T04:05:12.613Z,5.66
2019-05-15T04:06:12.595Z,5.65
2019-05-15T04:07:12.579Z,5.61
2019-05-15T04:08:12.557Z,5.59
2019-05-15T04:09:12.553Z,5.59
2019-05-15T04:10:12.539Z,5.53
2019-05-15T04:11:12.539Z,5.51
2019-05-15T04:12:12.517Z,5.46
2019-05-15T04:13:12.509Z,5.50
2019-05-15T04:14:12.491Z,5.38
2019-05-15T04:15:12.494Z,5.43
2019-05-15T04:16:12.483Z,5.46
2019-05-15T04:17:12.462Z,5.46
2019-05-15T04:18:12.442Z,5.51
2019-05-15T04:19:12.432Z,5.48
2019-05-15T04:20:12.441Z,5.41
2019-05-15T04:21:12.412Z,5.47
2019-05-15T04:22:12.422Z,5.46
2019-05-15T04:23:12.397Z,5.54
2019-05-15T04:24:12.379Z,5.61
2019-05-15T04:25:12.366Z,5.61
2019-05-15T04:26:12.373Z,5.57
2019-05-15T04:27:12.460Z,5.53
2019-05-15T04:28:12.347Z,5.57
2019-05-15T04:29:12.322Z,5.51
2019-05-15T04:30:12.316Z,5.61
2019-05-15T04:31:12.304Z,5.47
2019-05-15T04:32:12.307Z,5.61
2019-05-15T04:33:12.291Z,5.51
2019-05-15T04:34:12.269Z,5.56
2019-05-15T04:35:12.258Z,5.62
2019-05-15T04:36:12.249Z,5.59
2019-05-15T04:37:12.244Z,5.65
2019-05-15T04:38:12.250Z,5.59
2019-05-15T04:39:12.217Z,5.59
2019-05-15T04:40:12.246Z,5.56
2019-05-15T04:41:12.189Z,5.53
2019-05-15T04:42:12.184Z,5.56
2019-05-15T04:43:12.173Z,5.59
2019-05-15T04:44:12.175Z,5.66
2019-05-15T04:45:12.148Z,5.68
2019-05-15T04:46:12.158Z,5.73
2019-05-15T04:47:12.124Z,5.76
2019-05-15T04:48:12.130Z,5.71
2019-05-15T04:49:12.104Z,5.76
2019-05-15T04:50:12.102Z,5.80
2019-05-15T04:51:12.083Z,5.83
2019-05-15T04:52:12.106Z,5.83
2019-05-15T04:53:12.056Z,5.89
2019-05-15T04:54:12.044Z,5.89
2019-05-15T04:55:12.052Z,5.84
2019-05-15T04:56:12.033Z,5.90
2019-05-15T04:57:12.012Z,6.02
2019-05-15T04:58:12.019Z,6.09
2019-05-15T04:59:11.990Z,6.01
2019-05-15T05:00:11.981Z,6.07
2019-05-15T05:01:11.986Z,6.16
2019-05-15T05:02:17.320Z,6.16
2019-05-15T05:03:12.953Z,6.14
2019-05-15T05:04:11.943Z,6.19
2019-05-15T05:05:11.934Z,6.28
2019-05-15T05:06:11.920Z,6.42
2019-05-15T05:07:11.933Z,6.44
2019-05-15T05:08:11.950Z,6.60
2019-05-15T05:09:11.881Z,6.70
2019-05-15T05:10:11.880Z,6.88
2019-05-15T05:11:11.873Z,6.84
2019-05-15T05:12:11.851Z,7.00
2019-05-15T05:13:11.880Z,7.02
2019-05-15T05:14:11.869Z,7.02
2019-05-15T05:15:11.888Z,7.03
2019-05-15T05:16:11.814Z,7.10
2019-05-15T05:17:11.827Z,7.05
2019-05-15T05:18:11.783Z,7.05
2019-05-15T05:19:11.788Z,7.06
2019-05-15T05:20:11.789Z,7.11
2019-05-15T05:21:11.753Z,7.03
2019-05-15T05:22:11.767Z,7.11
2019-05-15T05:23:11.728Z,7.24
2019-05-15T05:24:11.732Z,7.15
2019-05-15T05:25:11.741Z,7.18
2019-05-15T05:26:11.699Z,7.29
2019-05-15T05:27:11.687Z,7.28
2019-05-15T05:28:11.715Z,7.43
2019-05-15T05:29:11.690Z,7.56
2019-05-15T05:30:11.662Z,7.56
2019-05-15T05:31:14.107Z,7.70
2019-05-15T05:32:11.637Z,7.90
2019-05-15T05:33:11.625Z,8.08
2019-05-15T05:34:11.616Z,8.23
2019-05-15T05:35:11.601Z,8.33
2019-05-15T05:36:11.599Z,8.45
2019-05-15T05:37:11.591Z,8.66
2019-05-15T05:38:11.575Z,8.74
2019-05-15T05:39:15.297Z,8.76
2019-05-15T05:40:12.540Z,8.78
2019-05-15T05:41:11.561Z,8.66
2019-05-15T05:42:11.535Z,8.70
2019-05-15T05:43:11.513Z,8.92
2019-05-15T05:44:11.533Z,9.00
2019-05-15T05:45:11.485Z,9.13
2019-05-15T05:46:11.508Z,9.10
2019-05-15T05:47:11.473Z,9.23
2019-05-15T05:48:11.453Z,9.31
2019-05-15T05:49:11.449Z,9.26
2019-05-15T05:50:11.457Z,9.26
2019-05-15T05:51:11.462Z,9.31
2019-05-15T05:52:11.426Z,9.28
2019-05-15T05:53:11.400Z,9.48
2019-05-15T05:54:11.389Z,9.55
2019-05-15T05:55:11.379Z,9.68
2019-05-15T05:56:11.382Z,9.84
2019-05-15T05:57:11.354Z,10.12
2019-05-15T05:58:11.351Z,10.33
2019-05-15T05:59:11.349Z,10.51
2019-05-15T06:00:11.350Z,10.57
2019-05-15T06:01:11.318Z,10.74
2019-05-15T06:02:11.334Z,10.79
2019-05-15T06:03:11.314Z,11.00
2019-05-15T06:04:11.296Z,11.15
2019-05-15T06:05:11.265Z,11.47
2019-05-15T06:06:11.257Z,11.72
2019-05-15T06:07:14.189Z,11.87
2019-05-15T06:08:11.232Z,11.68
2019-05-15T06:09:11.260Z,11.63
2019-05-15T06:10:11.226Z,11.80
2019-05-15T06:11:11.205Z,11.80
2019-05-15T06:12:11.187Z,11.90
2019-05-15T06:13:11.232Z,11.95
2019-05-15T06:14:11.165Z,12.27
2019-05-15T06:15:11.158Z,12.37
2019-05-15T06:16:11.194Z,12.32
2019-05-15T06:17:11.140Z,12.43
2019-05-15T06:18:11.121Z,12.27
2019-05-15T06:19:11.119Z,12.46
2019-05-15T06:20:11.099Z,12.65
2019-05-15T06:21:11.129Z,12.40
2019-05-15T06:22:11.091Z,12.45
2019-05-15T06:23:11.095Z,12.32
2019-05-15T06:24:13.216Z,12.36
2019-05-15T06:25:11.871Z,12.37
2019-05-15T06:26:11.038Z,12.47
2019-05-15T06:27:11.041Z,12.46
2019-05-15T06:28:11.025Z,12.31
2019-05-15T06:29:11.016Z,12.45
2019-05-15T06:30:18.595Z,12.65
2019-05-15T06:31:11.980Z,12.86
2019-05-15T06:32:10.963Z,12.80
2019-05-15T06:33:13.527Z,12.87
2019-05-15T06:34:10.942Z,12.87
2019-05-15T06:35:10.930Z,13.19
2019-05-15T06:36:10.929Z,13.37
2019-05-15T06:37:10.908Z,13.50
2019-05-15T06:38:10.949Z,13.52
2019-05-15T06:39:10.887Z,13.42
2019-05-15T06:40:10.876Z,13.46
2019-05-15T06:41:10.929Z,13.38
2019-05-15T06:42:10.857Z,13.30
2019-05-15T06:43:10.845Z,12.98
2019-05-15T06:44:10.844Z,12.58
2019-05-15T06:45:10.831Z,12.68
2019-05-15T06:46:10.811Z,12.76
2019-05-15T06:47:10.801Z,12.94
2019-05-15T06:48:10.839Z,12.79
2019-05-15T06:49:10.777Z,12.83
2019-05-15T06:50:10.782Z,12.90
2019-05-15T06:51:10.755Z,12.72
2019-05-15T06:52:10.746Z,12.54
2019-05-15T06:53:11.057Z,12.49
2019-05-15T06:54:10.734Z,12.47
2019-05-15T06:55:10.713Z,12.47
2019-05-15T06:56:10.732Z,12.61
2019-05-15T06:57:10.707Z,12.45
2019-05-15T06:58:10.697Z,12.42
2019-05-15T06:59:10.689Z,12.32
2019-05-15T07:00:10.653Z,12.28
2019-05-15T07:01:10.700Z,12.39
2019-05-15T07:02:10.661Z,12.43
2019-05-15T07:03:21.446Z,12.40
2019-05-15T07:04:11.634Z,12.45
2019-05-15T07:05:10.608Z,12.22
2019-05-15T07:06:10.606Z,12.24
2019-05-15T07:07:11.199Z,12.27
2019-05-15T07:08:10.568Z,12.37
2019-05-15T07:09:10.613Z,12.46
2019-05-15T07:10:10.560Z,12.49
2019-05-15T07:11:10.532Z,12.40
2019-05-15T07:12:10.588Z,12.32
2019-05-15T07:13:10.512Z,12.35
2019-05-15T07:14:10.521Z,12.42
2019-05-15T07:15:10.493Z,12.47
2019-05-15T07:16:10.476Z,12.67
2019-05-15T07:17:10.472Z,12.60
2019-05-15T07:18:10.473Z,12.58
2019-05-15T07:19:10.443Z,12.62
2019-05-15T07:20:10.451Z,12.67
2019-05-15T07:21:10.675Z,12.70
2019-05-15T07:22:10.417Z,12.61
2019-05-15T07:23:10.431Z,12.58
2019-05-15T07:24:10.389Z,12.62
2019-05-15T07:25:10.393Z,12.60
2019-05-15T07:26:10.371Z,12.62
2019-05-15T07:27:10.364Z,12.57
2019-05-15T07:28:10.348Z,12.58
2019-05-15T07:29:10.344Z,12.68
2019-05-15T07:30:12.227Z,12.55
2019-05-15T07:31:11.537Z,12.64
2019-05-15T07:32:10.310Z,12.64
2019-05-15T07:33:10.352Z,12.61
2019-05-15T07:34:10.296Z,12.57
2019-05-15T07:35:10.269Z,12.62
2019-05-15T07:36:10.273Z,12.65
2019-05-15T07:37:10.244Z,12.68
2019-05-15T07:38:10.237Z,12.78
2019-05-15T07:39:10.230Z,12.79
2019-05-15T07:40:10.224Z,12.87
2019-05-15T07:41:10.638Z,12.83
2019-05-15T07:42:10.223Z,12.80
2019-05-15T07:43:10.187Z,12.82
2019-05-15T07:44:10.195Z,12.85
2019-05-15T07:45:10.159Z,12.94
2019-05-15T07:46:10.148Z,13.04
2019-05-15T07:47:10.153Z,13.19
2019-05-15T07:48:10.152Z,13.30
2019-05-15T07:49:10.135Z,13.28
2019-05-15T07:50:10.113Z,13.39
2019-05-15T07:51:11.355Z,13.39
2019-05-15T07:52:10.087Z,13.30
2019-05-15T07:53:10.068Z,13.19
2019-05-15T07:54:10.067Z,13.19
2019-05-15T07:55:10.047Z,13.23
2019-05-15T07:56:11.791Z,13.23
2019-05-15T07:57:10.027Z,13.31
2019-05-15T07:58:10.039Z,13.27
2019-05-15T07:59:10.038Z,13.30
2019-05-15T08:00:09.990Z,13.37
2019-05-15T08:01:10.298Z,13.28
2019-05-15T08:02:09.966Z,13.22
2019-05-15T08:03:10.484Z,13.16
2019-05-15T08:04:24.866Z,13.15
2019-05-15T08:05:10.946Z,13.41
2019-05-15T08:06:09.957Z,13.46
2019-05-15T08:07:09.912Z,13.62
2019-05-15T08:08:09.942Z,13.67
2019-05-15T08:09:09.896Z,13.89
2019-05-15T08:10:09.890Z,14.05
2019-05-15T08:11:20.407Z,14.12
2019-05-15T08:12:10.853Z,14.15
2019-05-15T08:13:09.849Z,14.23
2019-05-15T08:14:09.845Z,14.43
2019-05-15T08:15:09.844Z,14.55
2019-05-15T08:16:09.812Z,14.68
2019-05-15T08:17:09.815Z,14.30
2019-05-15T08:18:12.923Z,14.29
2019-05-15T08:19:09.780Z,14.37
2019-05-15T08:20:09.778Z,14.30
2019-05-15T08:21:09.776Z,14.47
2019-05-15T08:22:09.743Z,14.53
2019-05-15T08:23:09.732Z,14.60
2019-05-15T08:24:09.722Z,14.73
2019-05-15T08:25:13.088Z,14.77
2019-05-15T08:26:10.719Z,14.82
2019-05-15T08:27:09.709Z,14.70
2019-05-15T08:28:09.699Z,14.66
2019-05-15T08:29:09.669Z,14.79
2019-05-15T08:30:09.652Z,14.81
2019-05-15T08:31:10.375Z,14.96
2019-05-15T08:32:09.666Z,14.85
2019-05-15T08:33:09.621Z,14.86
2019-05-15T08:34:15.995Z,14.92
2019-05-15T08:35:12.651Z,15.00
2019-05-15T08:36:09.582Z,15.07
2019-05-15T08:37:09.574Z,15.22
2019-05-15T08:38:09.567Z,15.28
2019-05-15T08:39:09.607Z,15.35
2019-05-15T08:40:09.549Z,15.31
2019-05-15T08:41:11.594Z,15.33
2019-05-15T08:42:09.522Z,15.27
2019-05-15T08:43:11.517Z,15.24
2019-05-15T08:44:09.509Z,15.22
2019-05-15T08:45:09.492Z,15.07
2019-05-15T08:46:09.476Z,15.31
2019-05-15T08:47:09.495Z,14.99
2019-05-15T08:48:09.496Z,15.04
2019-05-15T08:49:09.496Z,15.24
2019-05-15T08:50:09.447Z,15.24
2019-05-15T08:51:09.419Z,15.43
2019-05-15T08:52:10.110Z,15.62
2019-05-15T08:53:09.431Z,15.76
2019-05-15T08:54:09.398Z,15.79
2019-05-15T08:55:09.387Z,15.76
2019-05-15T08:56:09.365Z,15.51
2019-05-15T08:57:09.352Z,15.70
2019-05-15T08:58:13.932Z,15.90
2019-05-15T08:59:09.331Z,15.84
2019-05-15T09:00:09.970Z,15.92
2019-05-15T09:01:09.933Z,16.16
2019-05-15T09:02:09.299Z,16.26
2019-05-15T09:03:09.297Z,16.42
2019-05-15T09:04:09.279Z,16.51
2019-05-15T09:05:09.275Z,16.54
2019-05-15T09:06:09.423Z,16.54
2019-05-15T09:07:09.433Z,16.61
2019-05-15T09:08:09.441Z,16.87
2019-05-15T09:09:09.759Z,16.93
2019-05-15T09:10:09.299Z,16.78
2019-05-15T09:11:09.591Z,16.49
2019-05-15T09:12:09.190Z,16.42
2019-05-15T09:13:09.734Z,16.51
2019-05-15T09:14:09.187Z,16.69
2019-05-15T09:15:09.160Z,16.81
2019-05-15T09:16:09.168Z,16.81
2019-05-15T09:17:09.130Z,16.84
2019-05-15T09:18:15.856Z,16.86
2019-05-15T09:19:10.118Z,17.05
2019-05-15T09:20:09.145Z,17.09
2019-05-15T09:21:09.122Z,17.20
2019-05-15T09:22:09.303Z,17.20
2019-05-15T09:23:09.134Z,17.24
2019-05-15T09:24:09.587Z,17.11
2019-05-15T09:25:09.192Z,17.08
2019-05-15T09:26:09.434Z,17.09
2019-05-15T09:27:10.226Z,16.50
2019-05-15T09:28:09.065Z,16.54
2019-05-15T09:29:09.442Z,16.58
2019-05-15T09:30:08.991Z,16.76
2019-05-15T09:31:08.976Z,16.96
2019-05-15T09:32:12.437Z,16.84
2019-05-15T09:33:08.953Z,16.68
2019-05-15T09:34:09.266Z,16.66
2019-05-15T09:35:08.931Z,16.89
2019-05-15T09:36:09.241Z,17.11
2019-05-15T09:37:08.911Z,17.36
2019-05-15T09:38:08.909Z,17.57
2019-05-15T09:39:08.889Z,17.57
2019-05-15T09:40:09.148Z,17.76
2019-05-15T09:41:09.268Z,17.94
2019-05-15T09:42:08.858Z,17.94
2019-05-15T09:43:10.867Z,17.97
2019-05-15T09:44:08.848Z,17.83
2019-05-15T09:45:09.119Z,17.56
2019-05-15T09:46:10.484Z,17.49
2019-05-15T09:47:09.259Z,17.20
2019-05-15T09:48:10.168Z,16.69
2019-05-15T09:49:09.006Z,16.47
2019-05-15T09:50:08.776Z,16.54
2019-05-15T09:51:09.437Z,16.69
2019-05-15T09:52:09.071Z,16.93
2019-05-15T09:53:09.347Z,17.15
2019-05-15T09:54:08.727Z,17.36
2019-05-15T09:55:08.837Z,17.36
2019-05-15T09:56:08.699Z,17.34
2019-05-15T09:57:10.678Z,17.26
2019-05-15T09:58:08.697Z,17.23
2019-05-15T09:59:09.131Z,17.14
2019-05-15T10:00:09.067Z,17.23
2019-05-15T10:01:08.738Z,17.19
2019-05-15T10:02:09.200Z,17.24
2019-05-15T10:03:09.565Z,17.30
2019-05-15T10:04:08.622Z,17.20
2019-05-15T10:05:11.333Z,16.93
2019-05-15T10:06:08.590Z,17.09
2019-05-15T10:07:08.591Z,17.26
2019-05-15T10:08:09.116Z,17.56
2019-05-15T10:09:09.188Z,17.63
2019-05-15T10:10:08.851Z,17.79
2019-05-15T10:11:09.162Z,17.94
2019-05-15T10:12:09.230Z,18.10
2019-05-15T10:13:09.117Z,17.79
2019-05-15T10:14:09.744Z,17.63
2019-05-15T10:15:11.343Z,17.29
2019-05-15T10:16:08.665Z,17.27
2019-05-15T10:17:09.258Z,17.39
2019-05-15T10:18:09.926Z,17.54
2019-05-15T10:19:08.994Z,17.85
2019-05-15T10:20:09.128Z,18.04
2019-05-15T10:21:09.104Z,18.22
2019-05-15T10:22:09.753Z,18.20
2019-05-15T10:23:08.910Z,17.82
2019-05-15T10:24:09.463Z,17.65
2019-05-15T10:25:08.508Z,17.67
2019-05-15T10:26:13.924Z,17.89
2019-05-15T10:27:09.442Z,18.04
2019-05-15T10:28:09.961Z,18.23
2019-05-15T10:29:09.166Z,18.25
2019-05-15T10:30:09.202Z,18.29
2019-05-15T10:31:09.473Z,18.37
2019-05-15T10:32:08.731Z,18.10
2019-05-15T10:33:08.642Z,18.08
2019-05-15T10:34:09.211Z,18.03
2019-05-15T10:35:24.024Z,18.05
2019-05-15T10:36:09.255Z,18.05
2019-05-15T10:37:08.482Z,18.10
2019-05-15T10:38:08.973Z,18.10
2019-05-15T10:39:08.537Z,18.13
2019-05-15T10:40:09.073Z,17.83
2019-05-15T10:41:11.267Z,17.97
2019-05-15T10:42:09.185Z,18.03
2019-05-15T10:43:09.129Z,18.03
2019-05-15T10:44:09.162Z,18.18
2019-05-15T10:45:08.438Z,18.44
2019-05-15T10:46:13.048Z,18.43
2019-05-15T10:47:09.130Z,18.40
2019-05-15T10:48:09.355Z,18.53
2019-05-15T10:49:08.802Z,18.52
2019-05-15T10:50:08.111Z,18.68
2019-05-15T10:51:10.136Z,18.35
2019-05-15T10:52:08.772Z,18.20
2019-05-15T10:53:10.971Z,18.01
2019-05-15T10:54:08.545Z,18.04
2019-05-15T10:55:09.143Z,18.03
2019-05-15T10:56:08.946Z,18.31
2019-05-15T10:57:08.734Z,18.04
2019-05-15T10:58:14.136Z,17.97
2019-05-15T10:59:09.003Z,18.22
2019-05-15T11:00:08.043Z,18.37
2019-05-15T11:01:19.213Z,18.38
2019-05-15T11:02:08.599Z,17.72
2019-05-15T11:03:08.906Z,17.71
2019-05-15T11:04:09.068Z,17.79
2019-05-15T11:05:09.323Z,17.97
2019-05-15T11:06:09.015Z,18.31
2019-05-15T11:07:09.827Z,18.50
2019-05-15T11:08:08.425Z,18.74
2019-05-15T11:09:08.646Z,18.80
2019-05-15T11:10:08.594Z,18.31
2019-05-15T11:11:09.210Z,17.95
2019-05-15T11:12:08.729Z,17.87
2019-05-15T11:13:08.947Z,17.80
2019-05-15T11:14:09.188Z,18.10
2019-05-15T11:15:11.001Z,18.38
2019-05-15T11:16:07.836Z,18.40
2019-05-15T11:17:07.800Z,18.56
2019-05-15T11:18:09.277Z,18.44
2019-05-15T11:19:08.091Z,18.11
2019-05-15T11:20:08.482Z,17.63
2019-05-15T11:21:08.256Z,17.34
2019-05-15T11:22:09.070Z,17.34
2019-05-15T11:23:08.153Z,17.59
2019-05-15T11:24:08.784Z,17.89
2019-05-15T11:25:09.963Z,18.19
2019-05-15T11:26:08.757Z,18.28
2019-05-15T11:27:09.942Z,18.65
2019-05-15T11:28:08.279Z,18.77
2019-05-15T11:29:09.645Z,18.86
2019-05-15T11:30:07.795Z,18.52
2019-05-15T11:31:10.336Z,18.15
2019-05-15T11:32:08.846Z,18.37
2019-05-15T11:33:09.611Z,18.37
2019-05-15T11:34:09.366Z,17.90
2019-05-15T11:35:07.597Z,17.80
2019-05-15T11:36:07.587Z,17.79
2019-05-15T11:37:07.594Z,18.05
2019-05-15T11:38:10.068Z,18.31
2019-05-15T11:39:08.364Z,18.05
2019-05-15T11:40:09.925Z,18.07
2019-05-15T11:41:08.678Z,18.01
2019-05-15T11:42:08.854Z,18.33
2019-05-15T11:43:08.532Z,18.41
2019-05-15T11:44:07.497Z,18.58
2019-05-15T11:45:07.492Z,18.73
2019-05-15T11:46:09.957Z,18.93
2019-05-15T11:47:07.470Z,18.55
2019-05-15T11:48:09.113Z,18.60
2019-05-15T11:49:09.384Z,18.70
2019-05-15T11:50:08.372Z,18.60
2019-05-15T11:51:09.565Z,18.58
2019-05-15T11:52:08.702Z,18.50
2019-05-15T11:53:08.715Z,18.56
2019-05-15T11:54:08.242Z,18.81
2019-05-15T11:55:08.294Z,19.14
2019-05-15T11:56:09.467Z,19.24
2019-05-15T11:57:08.578Z,19.45
2019-05-15T11:58:09.301Z,19.34
2019-05-15T11:59:08.541Z,19.30
2019-05-15T12:00:14.971Z,19.33
2019-05-15T12:01:08.764Z,19.26
2019-05-15T12:02:08.558Z,19.26
2019-05-15T12:03:08.967Z,19.21
2019-05-15T12:04:09.189Z,19.29
2019-05-15T12:05:09.174Z,19.26
2019-05-15T12:06:16.026Z,19.27
2019-05-15T12:07:08.777Z,19.33
2019-05-15T12:08:09.058Z,19.15
2019-05-15T12:09:09.161Z,19.16
2019-05-15T12:10:10.575Z,18.84
2019-05-15T12:11:11.985Z,18.89
2019-05-15T12:12:08.836Z,18.99
2019-05-15T12:13:09.726Z,19.02
2019-05-15T12:14:08.494Z,18.86
2019-05-15T12:15:07.450Z,18.90
2019-05-15T12:16:07.177Z,19.00
2019-05-15T12:18:09.005Z,19.18
2019-05-15T12:19:16.672Z,19.16
2019-05-15T12:20:10.570Z,19.40
2019-05-15T12:21:07.109Z,19.33
2019-05-15T12:22:07.140Z,19.30
2019-05-15T12:23:09.110Z,19.48
2019-05-15T12:24:09.006Z,19.55
2019-05-15T12:25:09.690Z,19.52
2019-05-15T12:26:09.123Z,19.39
2019-05-15T12:27:15.287Z,19.45
2019-05-15T12:28:09.653Z,19.52
2019-05-15T12:29:09.924Z,19.59
2019-05-15T12:30:09.966Z,19.40
2019-05-15T12:31:08.936Z,19.08
2019-05-15T12:32:25.266Z,18.81
2019-05-15T12:33:09.254Z,18.83
2019-05-15T12:34:09.089Z,18.98
2019-05-15T12:35:06.971Z,18.93
2019-05-15T12:36:10.221Z,18.77
2019-05-15T12:37:09.778Z,18.74
2019-05-15T12:38:09.965Z,18.88
2019-05-15T12:39:10.696Z,19.09
2019-05-15T13:00:10.043Z,18.98
2019-05-15T13:01:16.861Z,18.80
2019-05-15T13:02:08.221Z,18.84
2019-05-15T13:03:08.879Z,18.98
2019-05-15T13:04:08.256Z,19.31
2019-05-15T13:05:08.371Z,19.54
2019-05-15T13:06:08.112Z,19.16
2019-05-15T13:07:13.946Z,18.88
2019-05-15T13:08:08.359Z,18.88
2019-05-15T13:09:08.662Z,19.11
2019-05-15T13:10:08.488Z,18.96
2019-05-15T13:11:09.821Z,18.74
2019-05-15T13:12:08.514Z,18.71
2019-05-15T13:13:08.940Z,18.63
2019-05-15T13:14:08.103Z,18.58
2019-05-15T13:15:08.222Z,18.81
2019-05-15T13:16:06.526Z,18.60
2019-05-15T13:17:06.490Z,18.53
2019-05-15T13:18:12.874Z,18.53
2019-05-15T13:19:07.454Z,18.23
2019-05-15T13:20:06.460Z,18.10
2019-05-15T13:21:06.469Z,18.01
2019-05-15T13:22:17.366Z,18.08
2019-05-15T13:23:07.416Z,18.11
2019-05-15T13:24:08.081Z,18.33
2019-05-15T13:25:08.443Z,18.28